Time;durP1;ratioP1;P1;durP2;ratioP2;P2;SDS_P1;SDS_P2;PMS_P1;PMS_P2;Temp;Humidity;BMP_temperature;BMP_pressure;BME280_temperature;BME280_humidity;BME280_pressure;Samples;Min_cycle;Max_cycle;Signal;HPM_P1;HPM_P2
2021/05/13 00:02:06;;;;;;;18.93;13.75;;;;;;;15.48;76.84;95376.75;128052;1096;22757;-87
2021/05/13 00:04:36;;;;;;;18.00;13.73;;;;;;;15.50;77.13;95379.88;128032;1101;22841;-83
2021/05/13 00:07:06;;;;;;;17.17;12.67;;;;;;;15.51;76.85;95382.21;128070;1101;23320;-86
2021/05/13 00:09:38;;;;;;;18.25;13.40;;;;;;;15.53;76.76;95385.31;128049;1101;23688;-85
2021/05/13 00:12:15;;;;;;;18.07;13.97;;;;;;;15.55;76.89;95384.97;128064;1101;22753;-85
2021/05/13 00:14:45;;;;;;;16.88;12.35;;;;;;;15.55;76.51;95382.30;128100;1101;22763;-84
2021/05/13 00:17:14;;;;;;;15.73;10.80;;;;;;;15.58;76.82;95389.63;128056;1101;22751;-87
2021/05/13 00:19:53;;;;;;;19.38;14.03;;;;;;;15.58;76.61;95378.95;128076;1101;22819;-85
2021/05/13 00:22:24;;;;;;;18.38;14.20;;;;;;;15.60;77.14;95384.75;128084;1101;22770;-82
2021/05/13 00:24:59;;;;;;;21.98;16.55;;;;;;;15.59;78.04;95377.83;128049;1101;22761;-86
2021/05/13 00:27:29;;;;;;;21.50;15.67;;;;;;;15.59;77.30;95380.50;128074;1095;25871;-83
2021/05/13 00:29:59;;;;;;;22.00;15.30;;;;;;;15.58;77.04;95374.38;128053;1101;22751;-85
2021/05/13 00:32:29;;;;;;;18.08;13.45;;;;;;;15.57;77.84;95375.50;128033;1101;22771;-82
2021/05/13 00:34:59;;;;;;;18.08;13.35;;;;;;;15.57;77.49;95366.70;128054;1101;22787;-84
2021/05/13 00:37:29;;;;;;;21.15;15.95;;;;;;;15.57;77.89;95362.14;128071;1101;22869;-82
2021/05/13 00:39:59;;;;;;;23.35;18.30;;;;;;;15.58;78.91;95365.59;128045;1101;22757;-83
2021/05/13 00:42:29;;;;;;;27.70;20.77;;;;;;;15.57;78.90;95364.03;128072;1101;22945;-82
2021/05/13 00:45:00;;;;;;;23.27;17.70;;;;;;;15.57;78.79;95356.02;128089;1101;23701;-83
2021/05/13 00:47:29;;;;;;;;;;;;;;;15.56;79.11;95352.58;128110;1101;22784;-83
2021/05/13 00:49:59;;;;;;;24.15;17.43;;;;;;;15.58;79.76;95353.01;128048;1101;24164;-82
2021/05/13 00:52:30;;;;;;;24.73;17.17;;;;;;;15.57;79.97;95348.01;128075;1101;22773;-83
2021/05/13 00:55:00;;;;;;;25.00;20.53;;;;;;;15.55;79.46;95340.34;128035;1101;22906;-83
2021/05/13 00:57:30;;;;;;;24.95;19.03;;;;;;;15.54;79.39;95336.12;128025;1101;22816;-83
2021/05/13 01:00:04;;;;;;;24.87;19.40;;;;;;;15.55;79.64;95334.22;128068;1101;24394;-83
2021/05/13 01:02:34;;;;;;;24.60;17.85;;;;;;;15.57;79.45;95337.33;128138;1101;23751;-83
2021/05/13 01:05:04;;;;;;;24.73;19.00;;;;;;;15.55;79.15;95334.22;128147;1094;27176;-83
2021/05/13 01:07:34;;;;;;;24.73;18.65;;;;;;;15.54;79.99;95333.45;128094;1101;22839;-83
2021/05/13 01:10:05;;;;;;;25.33;18.85;;;;;;;15.55;80.80;95328.88;128106;1101;22753;-84
2021/05/13 01:12:39;;;;;;;26.45;19.90;;;;;;;15.54;80.73;95330.00;128091;1101;22757;-83
2021/05/13 01:15:21;;;;;;;26.38;19.78;;;;;;;15.54;80.40;95330.00;128127;1101;22783;-82
2021/05/13 01:18:03;;;;;;;31.35;23.48;;;;;;;15.53;80.02;95326.55;128088;1101;22948;-84
2021/05/13 01:20:33;;;;;;;25.35;20.00;;;;;;;15.55;80.50;95326.20;128059;1101;22835;-85
2021/05/13 01:23:07;;;;;;;25.67;19.03;;;;;;;15.54;80.83;95328.10;128053;1101;22760;-83
2021/05/13 01:25:48;;;;;;;26.93;19.28;;;;;;;15.50;80.81;95316.55;128094;1101;22917;-88
2021/05/13 01:28:18;;;;;;;28.75;20.65;;;;;;;15.49;81.55;95322.23;128076;1101;22780;-82
2021/05/13 01:30:50;;;;;;;;;;;;;;;15.45;81.78;95309.55;128113;1101;22841;-84
2021/05/13 01:33:22;;;;;;;30.75;21.25;;;;;;;15.45;81.80;95314.11;128076;1101;24176;-83
2021/05/13 01:35:53;;;;;;;31.25;22.20;;;;;;;15.39;82.15;95308.25;128057;1101;24410;-83
2021/05/13 01:38:25;;;;;;;30.13;22.05;;;;;;;15.37;81.93;95307.81;128057;1101;22777;-83
2021/05/13 01:40:57;;;;;;;25.45;19.35;;;;;;;15.36;81.74;95303.59;128093;1101;22750;-84
2021/05/13 01:43:29;;;;;;;27.35;20.00;;;;;;;15.35;81.48;95294.03;128087;1096;22791;-83
2021/05/13 01:46:00;;;;;;;26.90;20.52;;;;;;;15.33;81.69;95306.14;128062;1095;26289;-84
2021/05/13 01:48:31;;;;;;;24.68;18.45;;;;;;;15.31;81.47;95295.80;128070;1101;22777;-83
2021/05/13 01:51:01;;;;;;;30.05;19.70;;;;;;;15.32;81.69;95302.70;128060;1094;22753;-86
2021/05/13 01:53:31;;;;;;;25.33;19.40;;;;;;;15.31;81.13;95293.13;128079;1101;22920;-82
2021/05/13 01:56:01;;;;;;;26.33;19.53;;;;;;;15.32;80.67;95289.34;128078;1101;22928;-83
2021/05/13 01:58:31;;;;;;;26.37;19.83;;;;;;;15.33;80.45;95293.56;128051;1101;23711;-81
2021/05/13 02:01:01;;;;;;;25.80;19.03;;;;;;;15.32;81.08;95284.00;128067;1101;22926;-83
2021/05/13 02:03:32;;;;;;;25.18;18.80;;;;;;;15.29;81.65;95284.69;128057;1101;22777;-82
2021/05/13 02:06:02;;;;;;;24.00;18.50;;;;;;;15.25;80.92;95291.84;128045;1101;22926;-83
2021/05/13 02:08:32;;;;;;;22.07;16.60;;;;;;;15.24;80.79;95287.61;128050;1101;22771;-82
2021/05/13 02:11:02;;;;;;;22.17;17.17;;;;;;;15.24;81.34;95276.16;128068;1101;23674;-84
2021/05/13 02:13:32;;;;;;;25.03;17.58;;;;;;;15.22;81.05;95284.52;128088;1101;24054;-81
2021/05/13 02:16:02;;;;;;;23.63;17.55;;;;;;;15.20;81.18;95275.27;128054;1101;22773;-84
2021/05/13 02:18:31;;;;;;;29.70;19.33;;;;;;;15.16;80.75;95275.17;128048;1101;24404;-82
2021/05/13 02:21:01;;;;;;;19.98;14.80;;;;;;;15.17;80.82;95271.39;128085;1093;22776;-84
2021/05/13 02:23:31;;;;;;;21.70;16.20;;;;;;;15.18;80.46;95261.48;128064;1094;25871;-82
2021/05/13 02:26:02;;;;;;;28.00;18.20;;;;;;;15.19;80.91;95257.70;128061;1101;23245;-84
2021/05/13 02:28:32;;;;;;;27.23;19.28;;;;;;;15.17;80.81;95260.70;128046;1096;22750;-83
2021/05/13 02:31:02;;;;;;;22.73;16.57;;;;;;;15.17;80.00;95255.37;128109;1101;22809;-83
2021/05/13 02:33:32;;;;;;;26.55;18.65;;;;;;;15.18;79.76;95253.47;128135;1101;22913;-82
2021/05/13 02:36:02;;;;;;;28.43;20.00;;;;;;;15.17;80.42;95250.03;128134;1101;22753;-83
2021/05/13 02:38:31;;;;;;;;;;;;;;;15.18;80.29;95243.57;128076;1101;22775;-82
2021/05/13 02:41:01;;;;;;;25.43;18.45;;;;;;;15.18;80.17;95240.91;128032;1101;21461;-87
2021/05/13 02:43:31;;;;;;;28.95;19.58;;;;;;;15.17;80.05;95238.58;128087;1101;22754;-82
2021/05/13 02:46:01;;;;;;;25.90;18.47;;;;;;;15.16;80.00;95237.80;128059;1101;22780;-83
2021/05/13 02:48:31;;;;;;;27.78;19.73;;;;;;;15.17;79.92;95249.25;128098;1101;23691;-83
2021/05/13 02:51:00;;;;;;;22.60;16.03;;;;;;;15.21;79.69;95234.91;128122;1101;24422;-83
2021/05/13 02:53:30;;;;;;;26.75;17.80;;;;;;;15.22;79.39;95225.78;128087;1101;22788;-82
2021/05/13 02:56:00;;;;;;;23.33;15.60;;;;;;;15.25;79.26;95225.09;128094;1101;24445;-83
2021/05/13 02:58:30;;;;;;;20.70;15.27;;;;;;;15.28;79.03;95232.41;128079;1096;22750;-83
2021/05/13 03:01:09;;;;;;;19.10;15.18;;;;;;;15.33;78.89;95229.48;128084;1096;23100;-84
2021/05/13 03:03:40;;;;;;;18.08;13.08;;;;;;;15.36;78.60;95230.72;128040;1094;22833;-84
2021/05/13 03:06:10;;;;;;;17.20;12.90;;;;;;;15.35;78.51;95229.94;128072;1101;22767;-83
2021/05/13 03:08:40;;;;;;;17.50;13.13;;;;;;;15.37;78.25;95227.70;128155;1101;22751;-83
2021/05/13 03:11:11;;;;;;;16.60;13.03;;;;;;;15.41;78.38;95228.56;128063;1101;22749;-83
2021/05/13 03:13:40;;;;;;;17.18;13.15;;;;;;;15.48;77.91;95235.19;128063;1101;22756;-84
2021/05/13 03:16:10;;;;;;;16.93;12.50;;;;;;;15.48;77.68;95224.51;128082;1101;22768;-83
2021/05/13 03:18:43;;;;;;;16.18;11.70;;;;;;;15.49;77.79;95218.08;128073;1096;22748;-83
2021/05/13 03:21:18;;;;;;;16.75;12.15;;;;;;;15.45;77.70;95215.29;128059;1101;22763;-86
2021/05/13 03:23:52;;;;;;;17.53;13.28;;;;;;;15.41;77.77;95217.88;128064;1101;22999;-85
2021/05/13 03:26:33;;;;;;;17.03;12.57;;;;;;;15.34;77.80;95216.91;128064;1101;22837;-84
2021/05/13 03:29:03;;;;;;;20.70;13.08;;;;;;;15.27;78.32;95206.05;128060;1101;24394;-83
2021/05/13 03:31:33;;;;;;;18.50;14.07;;;;;;;15.23;78.35;95205.97;128065;1101;22833;-82
2021/05/13 03:34:05;;;;;;;17.88;14.13;;;;;;;15.19;78.27;95205.08;128089;1096;26819;-82
2021/05/13 03:36:35;;;;;;;20.68;14.83;;;;;;;15.23;78.26;95205.97;128081;1101;22747;-85
2021/05/13 03:39:08;;;;;;;18.05;13.18;;;;;;;15.25;78.20;95205.63;128059;1095;26207;-83
2021/05/13 03:41:38;;;;;;;21.13;16.03;;;;;;;15.24;78.19;95207.52;128061;1096;22754;-82
2021/05/13 03:44:09;;;;;;;22.30;16.07;;;;;;;15.22;78.71;95204.42;128069;1101;22781;-85
2021/05/13 03:46:38;;;;;;;25.20;16.13;;;;;;;15.18;79.08;95198.19;128047;1101;22785;-85
2021/05/13 03:49:08;;;;;;;24.03;15.97;;;;;;;15.17;78.50;95196.64;128100;1096;23531;-85
2021/05/13 03:51:38;;;;;;;23.83;16.28;;;;;;;15.18;78.58;95197.41;128081;1101;22870;-85
2021/05/13 03:54:08;;;;;;;22.43;15.20;;;;;;;15.19;78.62;95202.41;128067;1094;22738;-84
2021/05/13 03:56:38;;;;;;;28.73;17.50;;;;;;;15.18;78.86;95197.41;128103;1101;22845;-84
2021/05/13 03:59:12;;;;;;;25.30;17.85;;;;;;;15.15;79.39;95193.54;128054;1101;22753;-85
2021/05/13 04:01:47;;;;;;;25.55;19.23;;;;;;;15.10;79.21;95191.91;128100;1101;22716;-82
2021/05/13 04:04:17;;;;;;;26.08;18.23;;;;;;;15.09;79.41;95190.35;128045;1101;22750;-84
2021/05/13 04:06:46;;;;;;;28.08;18.48;;;;;;;15.08;79.41;95198.70;128071;1101;22757;-85
2021/05/13 04:09:16;;;;;;;25.05;18.13;;;;;;;15.06;79.64;95192.91;128061;1101;24119;-82
2021/05/13 04:11:46;;;;;;;25.25;17.75;;;;;;;15.05;79.37;95188.69;128046;1101;23003;-83
2021/05/13 04:14:17;;;;;;;23.25;17.03;;;;;;;15.07;79.40;95192.59;128079;1101;22777;-84
2021/05/13 04:16:52;;;;;;;24.25;17.43;;;;;;;15.09;79.22;95192.25;128062;1101;22766;-85
2021/05/13 04:19:23;;;;;;;30.78;18.73;;;;;;;15.09;79.56;95186.91;128057;1101;23237;-84
2021/05/13 04:21:51;;;;;;;;;;;;;;;15.06;79.39;95184.90;128057;1101;22791;-83
2021/05/13 04:24:22;;;;;;;22.18;16.88;;;;;;;15.06;79.66;95187.56;128071;1101;21458;-83
2021/05/13 04:26:51;;;;;;;31.03;18.08;;;;;;;15.04;79.49;95182.57;128022;1101;22750;-83
2021/05/13 04:29:21;;;;;;;26.68;17.43;;;;;;;15.06;79.45;95187.56;128074;1101;22778;-84
2021/05/13 04:31:51;;;;;;;24.55;17.83;;;;;;;15.07;79.39;95183.81;128044;1096;22749;-84
2021/05/13 04:34:21;;;;;;;23.33;17.23;;;;;;;15.10;79.92;95183.13;128080;1094;26300;-83
2021/05/13 04:36:51;;;;;;;26.38;18.40;;;;;;;15.08;79.62;95180.80;128079;1101;22777;-85
2021/05/13 04:39:21;;;;;;;28.55;18.40;;;;;;;15.10;79.42;95183.13;128064;1101;22753;-83
2021/05/13 04:41:52;;;;;;;28.50;18.77;;;;;;;15.13;79.40;95183.20;128087;1101;23287;-85
2021/05/13 04:44:22;;;;;;;27.03;18.30;;;;;;;15.14;79.27;95186.65;128055;1101;22922;-83
2021/05/13 04:46:58;;;;;;;26.33;18.78;;;;;;;15.19;79.27;95183.72;128048;1094;26485;-82
2021/05/13 04:49:28;;;;;;;26.40;18.10;;;;;;;15.24;79.27;95183.49;128075;1101;22814;-82
2021/05/13 04:51:58;;;;;;;24.25;17.80;;;;;;;15.26;78.98;95181.25;128080;1101;22756;-84
2021/05/13 04:54:27;;;;;;;25.30;17.45;;;;;;;15.25;79.02;95182.38;128084;1095;26242;-83
2021/05/13 04:57:00;;;;;;;24.08;17.20;;;;;;;15.21;79.04;95178.84;128091;1096;26544;-84
2021/05/13 04:59:30;;;;;;;25.00;18.18;;;;;;;15.19;78.93;95178.38;128071;1101;22780;-83
2021/05/13 05:02:00;;;;;;;26.45;17.40;;;;;;;15.22;79.02;95177.72;128045;1101;22784;-84
2021/05/13 05:04:30;;;;;;;22.13;16.33;;;;;;;15.24;78.88;95178.15;128087;1101;24361;-82
2021/05/13 05:07:00;;;;;;;20.18;15.28;;;;;;;15.28;78.67;95172.89;128053;1101;22745;-88
2021/05/13 05:09:30;;;;;;;20.10;14.37;;;;;;;15.30;78.75;95176.77;128079;1101;22760;-83
2021/05/13 05:12:00;;;;;;;21.28;14.90;;;;;;;15.34;78.61;95169.64;128048;1096;26766;-84
2021/05/13 05:14:30;;;;;;;20.08;15.20;;;;;;;15.33;78.59;95165.40;128066;1101;24360;-83
2021/05/13 05:16:59;;;;;;;20.35;15.63;;;;;;;15.30;78.39;95165.31;128100;1101;22753;-84
2021/05/13 05:19:30;;;;;;;18.50;14.98;;;;;;;15.32;78.61;95161.17;128079;1094;26268;-82
2021/05/13 05:21:59;;;;;;;;;;;;;;;15.29;78.60;95161.09;128100;1101;22775;-82
2021/05/13 05:24:29;;;;;;;21.70;15.15;;;;;;;15.24;78.77;95153.34;128060;1101;24179;-82
2021/05/13 05:26:59;;;;;;;18.30;14.55;;;;;;;15.17;78.80;95158.49;128057;1101;22790;-83
2021/05/13 05:29:29;;;;;;;19.45;15.95;;;;;;;15.13;78.56;95158.41;128082;1101;22746;-83
2021/05/13 05:31:59;;;;;;;19.85;14.98;;;;;;;15.13;78.89;95159.18;128041;1101;22764;-81
2021/05/13 05:34:29;;;;;;;21.80;15.08;;;;;;;15.20;78.93;95152.46;128073;1101;22777;-82
2021/05/13 05:36:59;;;;;;;17.60;14.88;;;;;;;15.29;78.84;95159.20;128081;1095;24394;-83
2021/05/13 05:39:29;;;;;;;20.40;14.73;;;;;;;15.34;79.12;95156.30;128090;1096;26566;-83
2021/05/13 05:41:59;;;;;;;19.13;15.00;;;;;;;15.30;79.10;95151.97;128072;1101;22751;-83
2021/05/13 05:44:29;;;;;;;18.63;15.45;;;;;;;15.20;79.26;95160.47;128119;1101;22754;-82
2021/05/13 05:46:59;;;;;;;18.90;14.53;;;;;;;15.17;79.79;95153.92;128108;1101;22748;-84
2021/05/13 05:49:29;;;;;;;18.98;14.50;;;;;;;15.07;80.36;95152.55;128104;1101;22749;-82
2021/05/13 05:51:58;;;;;;;;;;;;;;;14.99;80.40;95158.03;128071;1101;22774;-83
2021/05/13 05:54:29;;;;;;;20.33;15.83;;;;;;;14.94;81.08;95160.96;128079;1101;21520;-82
2021/05/13 05:56:59;;;;;;;23.43;16.48;;;;;;;14.87;80.91;95155.42;128040;1101;22764;-83
2021/05/13 05:59:29;;;;;;;22.03;15.70;;;;;;;14.88;81.62;95157.75;128072;1101;22778;-83
2021/05/13 06:01:59;;;;;;;20.55;15.75;;;;;;;14.79;81.87;95146.47;128040;1101;22765;-84
2021/05/13 06:04:29;;;;;;;19.93;15.73;;;;;;;14.72;82.60;95155.03;128076;1101;22774;-82
2021/05/13 06:06:59;;;;;;;24.08;17.58;;;;;;;14.64;83.15;95158.64;128079;1101;22923;-85
2021/05/13 06:09:30;;;;;;;22.73;17.83;;;;;;;14.57;83.39;95158.43;128076;1101;22771;-83
2021/05/13 06:12:01;;;;;;;19.80;16.93;;;;;;;14.50;83.96;95163.58;128044;1095;22916;-83
2021/05/13 06:14:31;;;;;;;19.90;16.43;;;;;;;14.46;84.02;95158.13;128100;1096;26204;-84
2021/05/13 06:17:01;;;;;;;23.80;17.80;;;;;;;14.43;84.56;95161.44;128154;1101;22791;-83
2021/05/13 06:19:31;;;;;;;21.20;17.18;;;;;;;14.39;84.85;95167.80;128097;1101;22940;-83
2021/05/13 06:22:10;;;;;;;22.50;17.60;;;;;;;14.35;84.73;95173.00;128043;1101;22855;-85
2021/05/13 06:24:40;;;;;;;20.70;17.90;;;;;;;14.33;84.81;95169.13;128078;1101;22766;-83
2021/05/13 06:27:10;;;;;;;26.17;19.20;;;;;;;14.33;84.59;95166.45;128061;1101;22770;-85
2021/05/13 06:29:40;;;;;;;25.35;19.58;;;;;;;14.36;84.94;95165.81;128080;1101;22775;-85
2021/05/13 06:32:11;;;;;;;28.03;18.93;;;;;;;14.37;84.76;95165.47;128062;1101;22803;-84
2021/05/13 06:34:41;;;;;;;26.60;19.20;;;;;;;14.42;85.15;95167.11;128055;1101;23286;-83
2021/05/13 06:37:11;;;;;;;22.48;19.15;;;;;;;14.46;84.87;95163.45;128054;1101;22731;-85
2021/05/13 06:39:41;;;;;;;21.20;18.15;;;;;;;14.47;84.84;95164.23;128076;1101;22833;-84
2021/05/13 06:42:14;;;;;;;24.83;19.18;;;;;;;14.52;85.02;95166.68;128067;1101;22833;-84
2021/05/13 06:44:44;;;;;;;25.88;18.88;;;;;;;14.61;85.11;95167.30;128056;1101;22830;-86
2021/05/13 06:47:14;;;;;;;25.28;19.03;;;;;;;14.67;84.72;95157.95;128068;1101;22784;-84
2021/05/13 06:49:44;;;;;;;26.20;20.17;;;;;;;14.74;84.50;95166.14;128061;1101;22760;-83
2021/05/13 06:52:14;;;;;;;28.20;20.68;;;;;;;14.91;84.33;95162.39;128060;1101;22763;-84
2021/05/13 06:54:45;;;;;;;25.18;18.55;;;;;;;15.12;83.97;95162.20;128075;1101;22781;-84
2021/05/13 06:57:27;;;;;;;26.60;19.48;;;;;;;15.28;83.06;95160.32;128036;1101;22770;-83
2021/05/13 06:59:57;;;;;;;25.08;18.33;;;;;;;15.40;82.52;95162.92;127996;1095;25871;-85
2021/05/13 07:02:27;;;;;;;25.25;18.20;;;;;;;15.35;81.63;95157.06;128047;1101;22744;-82
2021/05/13 07:04:57;;;;;;;25.15;17.15;;;;;;;15.14;81.51;95157.29;128103;1101;22747;-83
2021/05/13 07:07:27;;;;;;;23.35;15.73;;;;;;;15.15;81.56;95156.94;128054;1101;24343;-83
2021/05/13 07:09:57;;;;;;;19.65;16.55;;;;;;;15.04;81.65;95155.88;128047;1101;22825;-83
2021/05/13 07:12:27;;;;;;;25.48;17.85;;;;;;;15.14;82.01;95152.72;128111;1101;24361;-82
2021/05/13 07:14:59;;;;;;;21.85;16.73;;;;;;;15.36;81.38;95154.05;128080;1101;24525;-83
2021/05/13 07:17:30;;;;;;;20.13;16.68;;;;;;;15.41;80.39;95159.13;128094;1101;22759;-82
2021/05/13 07:20:00;;;;;;;23.80;17.77;;;;;;;15.39;80.20;95157.92;128057;1101;22763;-83
2021/05/13 07:22:30;;;;;;;22.95;17.05;;;;;;;15.37;80.19;95157.50;128057;1101;22763;-83
2021/05/13 07:25:00;;;;;;;25.58;18.58;;;;;;;15.49;79.88;95152.08;128062;1101;22767;-85
2021/05/13 07:27:30;;;;;;;25.88;18.80;;;;;;;15.28;79.21;95154.98;128066;1097;26261;-83
2021/05/13 07:30:00;;;;;;;23.45;17.70;;;;;;;15.17;79.95;95153.16;128026;1101;22767;-85
2021/05/13 07:32:30;;;;;;;24.55;17.98;;;;;;;15.36;80.21;95150.61;128070;1097;26566;-83
2021/05/13 07:35:00;;;;;;;19.78;14.88;;;;;;;15.45;79.66;95143.95;128065;1101;22791;-84
2021/05/13 07:37:30;;;;;;;21.20;15.90;;;;;;;15.67;79.86;95137.27;128069;1101;22748;-82
2021/05/13 07:40:00;;;;;;;17.23;13.13;;;;;;;15.87;78.96;95142.67;128062;1101;22849;-83
2021/05/13 07:42:30;;;;;;;16.95;12.53;;;;;;;15.83;77.41;95139.15;128080;1101;22766;-83
2021/05/13 07:45:00;;;;;;;20.23;12.20;;;;;;;15.40;77.60;95140.78;128066;1101;22862;-83
2021/05/13 07:47:36;;;;;;;16.85;12.38;;;;;;;15.26;78.35;95137.76;128060;1101;22766;-85
2021/05/13 07:50:10;;;;;;;17.05;13.08;;;;;;;15.18;78.91;95142.13;128059;1101;22782;-83
2021/05/13 07:52:41;;;;;;;18.95;14.80;;;;;;;15.05;79.27;95129.97;128044;1096;22832;-84
2021/05/13 07:55:13;;;;;;;19.10;14.20;;;;;;;15.02;79.61;95134.10;128066;1096;26410;-85
2021/05/13 07:57:44;;;;;;;18.57;15.20;;;;;;;15.11;79.79;95133.95;128061;1101;22787;-85
2021/05/13 08:00:16;;;;;;;22.30;14.83;;;;;;;15.26;79.80;95125.19;128098;1101;22791;-83
2021/05/13 08:02:47;;;;;;;17.98;12.83;;;;;;;15.43;79.22;95134.74;128057;1101;22766;-85
2021/05/13 08:05:17;;;;;;;16.03;12.33;;;;;;;15.59;78.84;95132.88;128022;1101;22939;-83
2021/05/13 08:07:47;;;;;;;19.10;13.88;;;;;;;15.77;79.00;95138.66;128018;1101;22787;-84
2021/05/13 08:10:17;;;;;;;19.05;13.08;;;;;;;15.96;78.47;95136.02;128081;1101;24353;-83
2021/05/13 08:12:48;;;;;;;18.95;14.58;;;;;;;16.12;78.29;95129.86;128050;1101;22797;-84
2021/05/13 08:15:19;;;;;;;19.38;12.45;;;;;;;16.26;77.71;95128.27;128018;1101;22760;-83
2021/05/13 08:17:49;;;;;;;21.80;15.35;;;;;;;16.43;77.56;95128.98;128070;1101;22792;-83
2021/05/13 08:20:19;;;;;;;17.95;13.18;;;;;;;16.47;76.79;95122.59;128038;1101;22785;-82
2021/05/13 08:22:50;;;;;;;17.93;12.90;;;;;;;16.67;76.60;95118.03;128082;1094;22837;-83
2021/05/13 08:25:20;;;;;;;;;;;;;;;16.85;76.02;95121.04;128107;1096;26411;-82
2021/05/13 08:27:51;;;;;;;18.25;14.40;;;;;;;17.10;76.01;95116.14;128074;1094;21517;-83
2021/05/13 08:30:23;;;;;;;19.80;14.45;;;;;;;17.19;74.41;95122.83;128090;1101;22754;-82
2021/05/13 08:32:53;;;;;;;16.35;12.53;;;;;;;17.15;74.52;95119.29;128058;1101;22855;-83
2021/05/13 08:35:23;;;;;;;22.35;15.80;;;;;;;17.21;73.74;95115.20;128053;1101;22777;-83
2021/05/13 08:37:53;;;;;;;19.88;14.88;;;;;;;17.55;74.77;95104.64;128156;1101;22777;-82
2021/05/13 08:40:23;;;;;;;20.55;15.58;;;;;;;17.75;74.38;95108.83;128119;1094;22754;-82
2021/05/13 08:42:53;;;;;;;18.03;14.20;;;;;;;18.15;74.41;95104.00;128107;1101;23498;-84
2021/05/13 08:45:23;;;;;;;20.48;14.88;;;;;;;18.46;71.94;95105.56;128069;1094;22753;-84
2021/05/13 08:47:54;;;;;;;20.48;14.88;;;;;;;18.40;70.64;95110.47;128073;1094;27167;-85
2021/05/13 08:50:24;;;;;;;18.70;15.45;;;;;;;18.90;70.42;95100.34;128072;1101;22929;-83
2021/05/13 08:52:56;;;;;;;21.05;15.53;;;;;;;19.47;68.37;95112.39;128047;1096;27210;-85
2021/05/13 08:55:27;;;;;;;24.65;17.10;;;;;;;18.93;67.48;95111.11;128043;1101;22834;-83
2021/05/13 08:57:56;;;;;;;24.18;15.75;;;;;;;18.35;69.22;95108.11;128065;1096;22830;-83
2021/05/13 09:00:27;;;;;;;21.98;15.83;;;;;;;18.20;70.26;95111.75;128071;1101;22786;-83
2021/05/13 09:02:57;;;;;;;19.25;14.43;;;;;;;18.77;71.01;95107.88;128076;1101;23204;-85
2021/05/13 09:05:27;;;;;;;19.13;15.28;;;;;;;20.26;70.69;95104.87;128060;1101;22753;-83
2021/05/13 09:08:04;;;;;;;21.98;15.65;;;;;;;21.02;68.15;95099.42;128048;1095;24356;-84
2021/05/13 09:10:35;;;;;;;21.05;15.28;;;;;;;21.60;64.18;95096.42;128050;1101;24387;-85
2021/05/13 09:13:05;;;;;;;20.78;15.58;;;;;;;20.89;63.13;95096.31;128069;1101;22836;-85
2021/05/13 09:15:37;;;;;;;19.85;15.90;;;;;;;20.60;64.61;95097.38;128139;1094;26213;-83
2021/05/13 09:18:11;;;;;;;23.95;17.18;;;;;;;20.38;63.13;95091.86;128083;1101;22836;-85
2021/05/13 09:20:43;;;;;;;20.83;16.48;;;;;;;19.46;63.83;95102.02;128088;1101;24398;-83
2021/05/13 09:23:15;;;;;;;26.65;17.20;;;;;;;18.89;65.70;95094.20;128088;1101;22773;-83
2021/05/13 09:26:04;;;;;;;21.10;16.33;;;;;;;18.65;66.90;95090.09;128053;1101;22753;-85
2021/05/13 09:28:35;;;;;;;23.15;17.53;;;;;;;18.59;66.98;95088.09;128112;1101;22932;-86
2021/05/13 09:31:05;;;;;;;29.38;18.98;;;;;;;18.19;68.31;95086.84;128064;1096;27650;-84
2021/05/13 09:33:38;;;;;;;25.03;18.30;;;;;;;17.93;68.78;95086.86;128097;1101;22926;-84
2021/05/13 09:36:23;;;;;;;23.88;17.63;;;;;;;18.08;69.75;95080.55;128074;1101;22753;-86
2021/05/13 09:38:53;;;;;;;23.83;17.07;;;;;;;18.66;69.27;95083.59;128028;1101;22993;-85
2021/05/13 09:41:34;;;;;;;23.70;16.15;;;;;;;19.10;68.72;95087.48;128050;1101;22753;-83
2021/05/13 09:44:24;;;;;;;22.43;16.65;;;;;;;18.90;67.37;95079.63;128086;1101;22818;-82
2021/05/13 09:46:55;;;;;;;22.65;16.83;;;;;;;18.53;68.17;95079.57;128081;1101;24349;-86
2021/05/13 09:49:25;;;;;;;21.15;16.48;;;;;;;18.44;68.72;95067.56;128057;1096;26524;-82
2021/05/13 09:51:55;;;;;;;25.23;18.48;;;;;;;18.13;68.79;95071.41;128070;1101;22777;-83
2021/05/13 09:54:25;;;;;;;24.35;17.63;;;;;;;18.26;69.74;95064.67;128134;1101;22753;-83
2021/05/13 09:56:56;;;;;;;27.43;18.15;;;;;;;18.15;68.76;95072.58;128070;1101;22926;-85
2021/05/13 09:59:28;;;;;;;23.50;16.63;;;;;;;17.87;69.96;95067.61;128092;1101;23207;-83
2021/05/13 10:02:00;;;;;;;25.93;18.95;;;;;;;17.54;70.31;95065.59;128037;1101;23445;-88
2021/05/13 10:04:31;;;;;;;31.05;19.28;;;;;;;17.33;70.47;95062.59;128056;1094;22785;-83
2021/05/13 10:07:01;;;;;;;24.20;17.05;;;;;;;17.26;71.44;95067.81;128038;1101;22777;-83
2021/05/13 10:09:31;;;;;;;30.05;18.55;;;;;;;17.07;71.49;95074.80;128020;1101;22783;-83
2021/05/13 10:12:02;;;;;;;23.70;17.83;;;;;;;16.94;72.29;95075.32;128076;1101;22926;-84
2021/05/13 10:14:32;;;;;;;24.28;18.10;;;;;;;16.94;72.10;95073.41;128093;1101;22818;-84
2021/05/13 10:17:07;;;;;;;26.40;17.83;;;;;;;16.97;72.13;95070.02;128049;1101;22955;-83
2021/05/13 10:19:42;;;;;;;23.38;17.10;;;;;;;16.91;72.40;95063.42;128049;1101;22774;-84
2021/05/13 10:22:15;;;;;;;24.93;17.78;;;;;;;17.09;72.54;95061.05;128095;1101;22753;-83
2021/05/13 10:24:46;;;;;;;23.20;17.05;;;;;;;17.24;72.21;95062.05;128028;1101;22777;-86
2021/05/13 10:27:20;;;;;;;25.33;17.68;;;;;;;17.31;71.83;95052.20;128033;1096;26244;-83
2021/05/13 10:30:01;;;;;;;24.20;17.80;;;;;;;17.37;71.82;95048.11;128089;1101;22833;-84
2021/05/13 10:32:33;;;;;;;22.68;17.33;;;;;;;17.46;71.85;95050.55;128074;1101;22777;-82
2021/05/13 10:35:09;;;;;;;24.00;17.40;;;;;;;17.48;71.62;95050.96;128062;1101;22812;-84
2021/05/13 10:37:43;;;;;;;25.48;18.03;;;;;;;17.48;71.25;95051.73;128061;1101;22753;-86
2021/05/13 10:40:41;;;;;;;26.65;17.93;;;;;;;17.45;71.03;95057.02;128040;1101;22841;-85
2021/05/13 10:43:12;;;;;;;21.88;15.53;;;;;;;17.48;71.60;95048.28;128044;1101;22780;-84
2021/05/13 10:45:45;;;;;;;27.45;18.03;;;;;;;17.55;71.60;95047.59;128062;1101;22834;-83
2021/05/13 10:48:21;;;;;;;29.73;17.65;;;;;;;17.61;71.50;95044.27;128059;1101;22803;-85
2021/05/13 10:50:54;;;;;;;25.20;17.30;;;;;;;17.71;71.51;95049.02;128063;1101;22759;-83
2021/05/13 10:53:48;;;;;;;23.58;17.30;;;;;;;17.85;71.70;95053.80;128077;1101;22753;-83
2021/05/13 10:56:32;;;;;;;22.93;17.20;;;;;;;17.78;70.82;95059.08;128048;1101;22863;-83
2021/05/13 10:59:14;;;;;;;26.95;18.18;;;;;;;17.78;71.99;95048.36;128051;1101;22753;-83
2021/05/13 11:01:47;;;;;;;23.80;18.13;;;;;;;17.92;71.59;95039.73;128044;1101;22763;-83
2021/05/13 11:04:43;;;;;;;24.80;17.45;;;;;;;17.83;70.91;95034.63;128115;1101;22778;-86
2021/05/13 11:07:31;;;;;;;24.63;17.10;;;;;;;17.73;71.47;95033.34;128114;1101;22847;-85
2021/05/13 11:10:07;;;;;;;26.53;16.60;;;;;;;17.88;71.86;95025.52;128136;1101;22788;-84
2021/05/13 11:12:42;;;;;;;22.33;15.50;;;;;;;17.95;71.12;95021.00;128149;1101;22839;-84
2021/05/13 11:15:22;;;;;;;20.70;15.48;;;;;;;17.96;70.92;95032.50;128080;1101;22784;-86
2021/05/13 11:18:14;;;;;;;20.98;15.10;;;;;;;18.00;70.70;95022.59;128085;1101;22923;-83
2021/05/13 11:20:58;;;;;;;19.85;14.58;;;;;;;17.93;70.03;95028.64;128081;1101;22785;-84
2021/05/13 11:23:32;;;;;;;20.73;15.63;;;;;;;17.70;70.73;95020.67;128063;1096;26206;-83
2021/05/13 11:26:05;;;;;;;21.50;16.60;;;;;;;17.49;70.80;95017.67;128052;1101;22753;-83
2021/05/13 11:28:38;;;;;;;22.15;16.53;;;;;;;17.26;70.87;95014.25;128084;1095;25871;-83
2021/05/13 11:31:17;;;;;;;19.48;14.13;;;;;;;17.18;72.21;95022.19;128050;1101;22783;-85
2021/05/13 11:33:50;;;;;;;21.50;15.38;;;;;;;17.06;72.39;95038.44;128158;1101;22746;-84